Time;durP1;ratioP1;P1;durP2;ratioP2;P2;SDS_P1;SDS_P2;PMS_P1;PMS_P2;Temp;Humidity;BMP_temperature;BMP_pressure;BME280_temperature;BME280_humidity;BME280_pressure;Samples;Min_cycle;Max_cycle;Signal;HPM_P1;HPM_P2
2021/07/05 00:03:53;;;;;;;25.38;14.80;;;15.70;99.90;;;;;;12393436;28;20477;-40
2021/07/05 00:09:55;;;;;;;19.15;14.20;;;15.70;99.90;;;;;;12388631;28;20050;-39
2021/07/05 00:15:57;;;;;;;20.23;15.27;;;15.60;99.90;;;;;;12393584;28;20107;-40
2021/07/05 00:21:59;;;;;;;22.80;15.00;;;15.50;99.90;;;;;;12370671;28;20054;-40
2021/07/05 00:28:01;;;;;;;24.88;15.35;;;15.50;99.90;;;;;;12387268;28;20058;-40
2021/07/05 00:34:03;;;;;;;23.35;15.02;;;15.50;99.90;;;;;;12385582;28;20042;-40
2021/07/05 00:40:06;;;;;;;20.15;14.27;;;15.40;99.90;;;;;;12395385;28;20109;-40
2021/07/05 00:46:08;;;;;;;21.38;13.77;;;15.40;99.90;;;;;;12388706;28;20050;-40
2021/07/05 00:52:10;;;;;;;21.25;12.93;;;15.30;99.90;;;;;;12389680;28;20104;-39
2021/07/05 00:58:12;;;;;;;14.48;12.43;;;15.40;99.90;;;;;;12390511;28;20054;-40
2021/07/05 01:04:14;;;;;;;16.67;11.35;;;15.30;99.90;;;;;;12398929;28;20602;-40
2021/07/05 01:10:18;;;;;;;21.77;11.18;;;15.40;99.90;;;;;;12390527;28;20136;-39
2021/07/05 01:16:21;;;;;;;19.60;9.82;;;15.40;99.90;;;;;;12390602;28;20050;-40
2021/07/05 01:22:23;;;;;;;12.23;10.02;;;15.30;99.90;;;;;;12391230;28;20096;-41
2021/07/05 01:28:25;;;;;;;16.40;9.57;;;15.30;99.90;;;;;;12379807;28;20064;-39
2021/07/05 01:34:27;;;;;;;24.42;10.10;;;15.30;99.90;;;;;;12392735;28;20057;-39
2021/07/05 01:40:30;;;;;;;20.00;10.68;;;15.30;99.90;;;;;;12388392;28;20097;-41
2021/07/05 01:46:31;;;;;;;15.63;9.77;;;15.30;99.90;;;;;;12391465;28;20054;-40
2021/07/05 01:52:33;;;;;;;17.27;9.32;;;15.20;99.90;;;;;;12390174;28;20058;-40
2021/07/05 01:58:35;;;;;;;12.07;8.57;;;15.20;99.90;;;;;;12386707;28;20056;-39
2021/07/05 02:04:37;;;;;;;15.38;8.27;;;15.10;99.90;;;;;;12388552;28;20054;-40
2021/07/05 02:10:40;;;;;;;14.15;7.78;;;15.10;99.90;;;;;;12370004;28;20049;-43
2021/07/05 02:16:42;;;;;;;17.90;7.85;;;15.10;99.90;;;;;;12399149;28;20046;-40
2021/07/05 02:22:45;;;;;;;14.25;8.38;;;15.00;99.90;;;;;;12395482;28;20050;-40
2021/07/05 02:28:47;;;;;;;10.00;7.00;;;14.90;99.90;;;;;;12397181;28;20458;-40
2021/07/05 02:34:49;;;;;;;14.07;6.20;;;14.90;99.90;;;;;;12400724;28;20127;-40
2021/07/05 02:40:56;;;;;;;16.08;6.95;;;14.80;99.90;;;;;;12397549;28;20049;-39
2021/07/05 02:46:57;;;;;;;11.02;5.07;;;14.80;99.90;;;;;;12397695;28;20116;-40
2021/07/05 02:53:01;;;;;;;11.57;5.10;;;14.80;99.90;;;;;;12386889;28;20046;-40
2021/07/05 02:59:03;;;;;;;10.70;4.90;;;14.80;99.90;;;;;;12402218;28;20050;-40
2021/07/05 03:05:08;;;;;;;7.72;4.05;;;14.70;99.90;;;;;;12391656;28;20089;-41
2021/07/05 03:11:12;;;;;;;9.95;4.28;;;14.70;99.90;;;;;;12397466;28;20050;-41
2021/07/05 03:17:14;;;;;;;9.67;4.33;;;14.70;99.90;;;;;;12396673;28;20050;-40
2021/07/05 03:23:18;;;;;;;15.95;4.88;;;14.70;99.90;;;;;;12403755;28;20054;-40
2021/07/05 03:29:20;;;;;;;9.48;4.93;;;14.80;99.90;;;;;;12397061;28;20054;-40
2021/07/05 03:35:22;;;;;;;15.68;4.88;;;14.60;99.90;;;;;;12398882;28;21061;-40
2021/07/05 03:41:24;;;;;;;10.10;4.97;;;14.60;99.90;;;;;;12395610;28;20041;-41
2021/07/05 03:47:26;;;;;;;12.57;4.55;;;14.60;99.90;;;;;;12389650;28;20062;-40
2021/07/05 03:53:28;;;;;;;9.85;3.55;;;14.60;99.90;;;;;;12398048;28;20114;-41
2021/07/05 03:59:30;;;;;;;12.25;3.45;;;14.60;99.90;;;;;;12397761;28;20128;-40
2021/07/05 04:05:32;;;;;;;10.00;3.78;;;14.60;99.90;;;;;;12397942;28;20438;-40
2021/07/05 04:11:34;;;;;;;5.25;3.50;;;14.70;99.90;;;;;;12397865;28;20050;-40
2021/07/05 04:17:36;;;;;;;9.05;3.80;;;14.80;99.90;;;;;;12394308;28;20148;-40
2021/07/05 04:23:38;;;;;;;5.68;3.13;;;14.90;99.90;;;;;;12391468;28;20111;-41
2021/07/05 04:29:41;;;;;;;7.20;3.33;;;15.00;99.90;;;;;;12395756;28;20689;-41
2021/07/05 04:35:43;;;;;;;5.70;2.80;;;15.00;99.90;;;;;;12393319;28;20042;-40
2021/07/05 04:41:45;;;;;;;6.90;2.60;;;15.00;99.90;;;;;;12391499;28;20445;-42
2021/07/05 04:47:47;;;;;;;5.80;1.98;;;15.10;99.90;;;;;;12391029;28;20053;-41
2021/07/05 04:53:50;;;;;;;8.70;2.60;;;15.20;99.90;;;;;;12394471;28;20552;-40
2021/07/05 04:59:52;;;;;;;3.40;1.92;;;15.20;99.90;;;;;;12389340;28;20050;-41
2021/07/05 05:05:54;;;;;;;6.82;2.25;;;15.30;99.90;;;;;;12390989;28;20149;-41
2021/07/05 05:11:55;;;;;;;5.82;1.90;;;15.40;99.90;;;;;;12389407;28;20050;-41
2021/07/05 05:17:57;;;;;;;4.25;2.13;;;15.40;99.90;;;;;;12394631;28;20050;-40
2021/07/05 05:24:00;;;;;;;8.82;2.25;;;15.50;99.90;;;;;;12385980;28;20449;-40
2021/07/05 05:30:04;;;;;;;6.15;1.70;;;15.70;99.90;;;;;;12389425;28;20057;-40
2021/07/05 05:36:16;;;;;;;3.67;1.50;;;15.80;99.90;;;;;;12393730;28;20050;-40
2021/07/05 05:42:18;;;;;;;2.17;1.25;;;15.90;99.90;;;;;;12392197;28;20107;-40
2021/07/05 05:48:19;;;;;;;6.70;1.45;;;16.00;99.90;;;;;;12393545;28;20656;-40
2021/07/05 05:54:21;;;;;;;2.78;1.27;;;16.20;99.90;;;;;;12394856;28;20050;-41
2021/07/05 06:00:25;;;;;;;4.28;1.38;;;16.30;99.90;;;;;;12388289;28;20657;-42
2021/07/05 06:06:26;;;;;;;3.73;1.40;;;16.50;99.90;;;;;;12392686;28;20050;-41
2021/07/05 06:12:28;;;;;;;4.82;1.40;;;16.70;99.90;;;;;;12383722;28;20054;-41
2021/07/05 06:18:30;;;;;;;7.03;1.20;;;16.90;99.90;;;;;;12391196;28;20096;-41
2021/07/05 06:24:32;;;;;;;4.68;1.10;;;17.10;99.90;;;;;;12392165;28;20157;-40
2021/07/05 06:30:34;;;;;;;3.78;1.20;;;17.40;99.90;;;;;;12391246;28;20050;-40
2021/07/05 06:36:38;;;;;;;4.90;1.27;;;17.50;99.90;;;;;;12391430;28;20046;-40
2021/07/05 06:42:40;;;;;;;5.82;1.35;;;17.50;99.90;;;;;;12384785;28;20085;-40
2021/07/05 06:48:41;;;;;;;6.00;1.30;;;17.70;99.90;;;;;;12391676;28;20108;-41
2021/07/05 06:54:44;;;;;;;3.17;1.23;;;17.60;99.90;;;;;;12384834;28;20492;-40
2021/07/05 07:00:46;;;;;;;5.78;1.23;;;17.50;99.90;;;;;;12394461;28;20042;-41
2021/07/05 07:06:49;;;;;;;3.20;1.52;;;17.50;99.90;;;;;;12390776;28;20088;-41
2021/07/05 07:12:54;;;;;;;4.07;1.77;;;17.50;99.90;;;;;;12394243;28;20077;-41
2021/07/05 07:19:19;;;;;;;3.40;1.50;;;17.40;99.90;;;;;;12393246;28;20698;-40
2021/07/05 07:25:21;;;;;;;4.07;1.60;;;17.50;99.90;;;;;;12397873;28;20045;-40
2021/07/05 07:31:23;;;;;;;3.22;1.80;;;17.50;99.90;;;;;;12403568;28;20054;-40
2021/07/05 07:37:26;;;;;;;5.18;1.73;;;17.50;99.90;;;;;;12400840;28;20051;-40
2021/07/05 07:43:27;;;;;;;5.68;1.48;;;17.60;99.90;;;;;;12399933;28;20081;-40
2021/07/05 07:49:33;;;;;;;9.98;2.10;;;17.50;99.90;;;;;;12394008;28;20553;-40
2021/07/05 07:55:35;;;;;;;7.13;2.28;;;17.10;99.90;;;;;;12389695;28;20046;-39
2021/07/05 08:01:37;;;;;;;3.75;1.33;;;16.60;99.90;;;;;;12392980;28;20042;-42
2021/07/05 08:07:43;;;;;;;2.80;0.90;;;16.30;99.90;;;;;;12396740;28;20066;-40
2021/07/05 08:13:45;;;;;;;4.38;1.10;;;16.00;99.90;;;;;;12393641;28;20111;-40
2021/07/05 08:19:47;;;;;;;4.78;1.80;;;16.30;99.90;;;;;;12396866;28;20474;-40
2021/07/05 08:25:49;;;;;;;4.68;2.10;;;16.30;99.90;;;;;;12398897;28;20561;-39
2021/07/05 08:31:51;;;;;;;5.93;2.13;;;16.30;99.90;;;;;;12390227;28;21070;-39
2021/07/05 08:37:53;;;;;;;4.47;2.45;;;16.40;99.90;;;;;;12393294;28;20089;-39
2021/07/05 08:43:58;;;;;;;5.68;2.38;;;16.40;99.90;;;;;;12387959;28;20131;-39
2021/07/05 08:49:59;;;;;;;3.22;2.28;;;16.30;99.90;;;;;;12399303;28;20061;-41
2021/07/05 08:56:02;;;;;;;3.45;1.77;;;16.30;99.90;;;;;;12393497;28;20046;-40
2021/07/05 09:02:04;;;;;;;6.50;2.30;;;16.30;99.90;;;;;;12384776;28;20054;-39
2021/07/05 09:08:11;;;;;;;6.97;2.17;;;16.40;99.90;;;;;;12392629;28;20498;-41
2021/07/05 09:14:22;;;;;;;4.53;1.80;;;16.40;99.90;;;;;;12379235;28;20724;-40
2021/07/05 09:20:24;;;;;;;5.05;2.30;;;16.40;99.90;;;;;;12389789;28;20561;-39
2021/07/05 09:26:32;;;;;;;5.82;2.08;;;16.40;99.90;;;;;;12389702;28;20061;-39
2021/07/05 09:32:34;;;;;;;3.90;2.17;;;16.40;99.90;;;;;;12392109;28;20046;-40
2021/07/05 09:38:43;;;;;;;3.20;1.70;;;16.50;99.90;;;;;;12383213;28;20061;-40
2021/07/05 09:44:47;;;;;;;3.50;2.10;;;16.70;99.90;;;;;;12388336;28;20049;-40
2021/07/05 09:50:57;;;;;;;3.83;1.80;;;16.80;99.90;;;;;;12381793;28;20201;-40
2021/07/05 09:57:00;;;;;;;3.67;1.70;;;17.00;99.90;;;;;;12379934;28;20043;-39
2021/07/05 10:03:08;;;;;;;2.13;1.80;;;16.80;99.90;;;;;;12386304;28;20085;-41
2021/07/05 10:09:11;;;;;;;5.00;2.40;;;16.80;99.90;;;;;;12376746;28;20050;-39
2021/07/05 10:15:13;;;;;;;2.83;2.53;;;16.70;99.90;;;;;;12391338;28;20058;-41
2021/07/05 10:21:15;;;;;;;3.60;2.70;;;16.90;99.90;;;;;;12393477;28;20042;-40
2021/07/05 10:27:18;;;;;;;3.75;2.20;;;17.00;99.90;;;;;;12388176;28;20089;-40
2021/07/05 10:33:21;;;;;;;1.67;0.80;;;17.10;99.90;;;;;;12385911;28;20050;-40
2021/07/05 10:39:24;;;;;;;1.80;0.70;;;17.20;99.90;;;;;;12386552;28;20045;-40
2021/07/05 10:45:44;;;;;;;0.77;0.52;;;17.40;99.90;;;;;;12389808;28;20115;-40
2021/07/05 10:51:47;;;;;;;1.02;0.60;;;17.40;99.90;;;;;;12389416;28;20050;-41
2021/07/05 10:57:53;;;;;;;1.30;0.77;;;17.30;99.90;;;;;;12396085;28;20049;-41
2021/07/05 11:03:55;;;;;;;0.88;0.57;;;17.70;99.90;;;;;;12393010;28;20489;-40
2021/07/05 11:09:58;;;;;;;1.90;0.70;;;18.50;99.90;;;;;;12389510;28;20502;-41
2021/07/05 11:16:00;;;;;;;1.13;0.60;;;18.80;99.90;;;;;;12386577;28;20655;-40
2021/07/05 11:22:16;;;;;;;2.22;0.70;;;18.90;99.90;;;;;;12386984;28;20049;-41
2021/07/05 11:28:19;;;;;;;1.95;0.60;;;19.10;99.90;;;;;;12387192;28;20145;-41
2021/07/05 11:34:35;;;;;;;5.57;0.80;;;18.80;99.90;;;;;;12398516;28;20830;-40
2021/07/05 11:40:47;;;;;;;0.80;0.60;;;18.90;99.90;;;;;;12395005;28;20196;-40
2021/07/05 11:46:50;;;;;;;1.23;0.70;;;19.50;99.90;;;;;;12396506;28;20093;-40
2021/07/05 11:53:01;;;;;;;2.17;0.50;;;19.70;99.90;;;;;;12399328;28;20514;-40
2021/07/05 11:59:06;;;;;;;1.58;0.70;;;19.70;99.90;;;;;;12398381;28;20054;-42
2021/07/05 12:05:10;;;;;;;2.25;0.63;;;20.00;99.90;;;;;;12396227;28;20054;-42
2021/07/05 12:11:12;;;;;;;;;;;19.90;99.90;;;;;;12397782;28;20054;-40
2021/07/05 12:17:15;;;;;;;2.15;0.80;;;20.40;99.90;;;;;;12388784;28;19975;-40
2021/07/05 12:23:18;;;;;;;1.95;0.70;;;;;;;;;;12393731;28;20671;-41
2021/07/05 12:29:40;;;;;;;2.15;0.80;;;20.80;99.90;;;;;;12399233;28;20436;-41
2021/07/05 12:35:43;;;;;;;1.55;0.70;;;21.10;99.90;;;;;;12396983;28;20047;-40
2021/07/05 12:41:44;;;;;;;1.98;0.70;;;20.60;99.90;;;;;;12393000;28;20045;-40
2021/07/05 12:47:58;;;;;;;3.10;1.20;;;20.70;99.90;;;;;;12398576;28;20095;-40
2021/07/05 12:54:00;;;;;;;4.43;1.10;;;20.50;99.90;;;;;;12397906;28;20100;-40
2021/07/05 13:00:07;;;;;;;2.45;0.90;;;20.40;99.90;;;;;;12393588;28;20108;-42
2021/07/05 13:06:10;;;;;;;3.45;1.10;;;20.00;99.90;;;;;;12394493;28;20400;-40
2021/07/05 13:12:15;;;;;;;5.17;1.53;;;20.20;99.90;;;;;;12391502;28;20119;-43
2021/07/05 13:18:23;;;;;;;2.63;1.20;;;20.60;99.90;;;;;;12394813;28;20049;-41
2021/07/05 13:24:27;;;;;;;3.03;1.27;;;20.90;99.90;;;;;;12390960;28;20050;-41
2021/07/05 13:30:30;;;;;;;7.40;1.67;;;21.50;99.90;;;;;;12394304;28;20103;-41
2021/07/05 13:36:32;;;;;;;4.60;1.87;;;21.80;99.90;;;;;;12400334;28;20196;-40
2021/07/05 13:42:40;;;;;;;3.50;1.38;;;21.70;99.90;;;;;;12390055;28;20050;-41
2021/07/05 13:48:43;;;;;;;4.03;1.17;;;22.10;99.90;;;;;;12391322;28;20053;-40
2021/07/05 13:54:45;;;;;;;5.40;1.40;;;22.30;99.90;;;;;;12389420;28;20050;-41
2021/07/05 14:00:53;;;;;;;7.10;1.60;;;22.20;99.90;;;;;;12393932;28;20046;-41
2021/07/05 14:06:54;;;;;;;2.58;1.20;;;22.30;99.90;;;;;;12393924;28;20051;-41
2021/07/05 14:12:58;;;;;;;4.70;1.73;;;22.10;99.90;;;;;;12392387;28;20065;-41
2021/07/05 14:19:00;;;;;;;;;;;21.80;99.90;;;;;;12398181;28;20073;-42
2021/07/05 14:25:03;;;;;;;5.95;1.92;;;21.50;99.90;;;;;;12401301;28;19926;-42
2021/07/05 14:31:06;;;;;;;;;;;21.80;99.90;;;;;;12402958;28;20054;-41
2021/07/05 14:37:08;;;;;;;6.43;2.10;;;21.60;99.90;;;;;;12403929;28;20646;-42
2021/07/05 14:43:11;;;;;;;4.72;1.95;;;21.80;99.90;;;;;;12400878;28;20054;-40
2021/07/05 14:49:14;;;;;;;4.32;1.58;;;21.80;99.90;;;;;;12399617;28;20050;-41
2021/07/05 14:55:17;;;;;;;2.55;1.48;;;22.10;99.90;;;;;;12397286;28;20058;-41
2021/07/05 15:01:18;;;;;;;6.20;1.90;;;22.30;99.90;;;;;;12397696;28;20054;-42
2021/07/05 15:07:21;;;;;;;3.88;1.65;;;22.60;99.90;;;;;;12402590;28;20050;-41
2021/07/05 15:13:29;;;;;;;6.07;1.80;;;23.20;99.90;;;;;;12403293;28;20116;-40
2021/07/05 15:19:31;;;;;;;4.60;2.03;;;22.50;99.90;;;;;;12393978;28;20478;-41
2021/07/05 15:25:34;;;;;;;4.93;2.17;;;22.80;99.90;;;;;;12399868;28;20061;-40
2021/07/05 15:31:36;;;;;;;3.75;1.88;;;22.50;99.90;;;;;;12396117;28;20667;-41
2021/07/05 15:37:39;;;;;;;3.85;1.92;;;21.80;99.90;;;;;;12398019;28;20498;-41
2021/07/05 15:43:41;;;;;;;4.43;1.92;;;21.30;99.90;;;;;;12395728;28;20054;-41
2021/07/05 15:49:44;;;;;;;5.65;2.00;;;21.20;99.90;;;;;;12390642;28;20124;-41
2021/07/05 15:55:46;;;;;;;6.50;2.00;;;21.30;99.90;;;;;;12393567;28;20042;-41
2021/07/05 16:01:58;;;;;;;5.25;2.20;;;21.10;99.90;;;;;;12396127;28;20053;-41
2021/07/05 16:08:00;;;;;;;6.03;2.28;;;21.10;99.90;;;;;;12401231;28;20057;-41
2021/07/05 16:14:02;;;;;;;9.48;2.50;;;21.40;99.90;;;;;;12396520;28;20085;-41
2021/07/05 16:20:07;;;;;;;4.13;2.28;;;22.00;99.90;;;;;;12394475;28;20203;-41
2021/07/05 16:26:09;;;;;;;6.03;2.30;;;22.20;99.90;;;;;;12392470;28;20620;-42
2021/07/05 16:32:11;;;;;;;6.55;2.67;;;21.50;99.90;;;;;;12399394;28;20050;-40
2021/07/05 16:38:16;;;;;;;4.85;2.60;;;21.40;99.90;;;;;;12391319;28;20050;-43
2021/07/05 16:44:18;;;;;;;6.22;2.55;;;21.10;99.90;;;;;;12393174;28;20105;-42
2021/07/05 16:50:22;;;;;;;5.57;2.80;;;20.80;99.90;;;;;;12395208;28;20488;-40
2021/07/05 16:56:24;;;;;;;;;;;20.80;99.90;;;;;;12389497;28;20069;-41
2021/07/05 17:02:27;;;;;;;7.28;2.10;;;20.70;99.90;;;;;;12396206;28;20095;-42
2021/07/05 17:08:32;;;;;;;3.95;1.92;;;20.70;99.90;;;;;;12391349;28;20081;-41
2021/07/05 17:14:35;;;;;;;4.72;1.80;;;20.60;99.90;;;;;;12393964;28;20059;-41
2021/07/05 17:20:38;;;;;;;6.93;1.70;;;20.40;99.90;;;;;;12398407;28;20077;-41
2021/07/05 17:26:40;;;;;;;4.57;1.60;;;20.30;99.90;;;;;;12388798;28;20796;-41
2021/07/05 17:32:43;;;;;;;6.13;1.92;;;20.30;99.90;;;;;;12391656;28;20096;-42
2021/07/05 17:38:45;;;;;;;3.70;1.60;;;20.30;99.90;;;;;;12391264;28;20056;-40
2021/07/05 17:44:47;;;;;;;3.88;2.05;;;20.20;99.90;;;;;;12399479;28;20050;-42
2021/07/05 17:50:48;;;;;;;4.93;1.75;;;20.10;99.90;;;;;;12390685;28;20123;-42
2021/07/05 17:56:53;;;;;;;3.95;1.55;;;20.10;99.90;;;;;;12392294;28;20145;-41
2021/07/05 18:02:55;;;;;;;3.80;1.45;;;20.00;99.90;;;;;;12393384;28;20411;-41
2021/07/05 18:08:57;;;;;;;4.47;1.55;;;19.90;99.90;;;;;;12394011;28;20054;-42
2021/07/05 18:14:58;;;;;;;4.93;1.70;;;19.80;99.90;;;;;;12392549;28;20046;-41
2021/07/05 18:21:01;;;;;;;6.90;2.53;;;19.80;99.90;;;;;;12391068;28;20038;-41
2021/07/05 18:27:03;;;;;;;3.50;1.90;;;19.70;99.90;;;;;;12390117;28;20383;-40
2021/07/05 18:33:06;;;;;;;3.80;2.00;;;19.70;99.90;;;;;;12391207;28;20137;-41
2021/07/05 18:39:08;;;;;;;4.50;2.47;;;19.70;99.90;;;;;;12389610;28;20109;-41
2021/07/05 18:45:11;;;;;;;5.07;1.88;;;19.60;99.90;;;;;;12391846;28;20046;-40
2021/07/05 18:51:12;;;;;;;4.90;2.35;;;19.50;99.90;;;;;;12389886;28;20101;-40
2021/07/05 18:57:19;;;;;;;6.72;2.50;;;19.50;99.90;;;;;;12394914;28;20461;-42
2021/07/05 19:03:21;;;;;;;3.92;2.75;;;19.40;99.90;;;;;;12393001;28;20068;-41
2021/07/05 19:09:23;;;;;;;5.72;2.75;;;19.40;99.90;;;;;;12398300;28;20046;-41
2021/07/05 19:15:26;;;;;;;8.18;2.80;;;19.20;99.90;;;;;;12400073;28;20552;-40
2021/07/05 19:21:28;;;;;;;4.40;2.60;;;19.10;99.90;;;;;;12402989;28;20475;-41
2021/07/05 19:27:30;;;;;;;4.55;2.40;;;19.00;99.90;;;;;;12404099;28;20064;-40
2021/07/05 19:33:32;;;;;;;7.15;2.53;;;18.90;99.90;;;;;;12400144;28;20108;-40
2021/07/05 19:39:36;;;;;;;4.43;2.30;;;18.90;99.90;;;;;;12398138;28;20453;-41
2021/07/05 19:45:41;;;;;;;7.40;2.20;;;18.80;99.90;;;;;;12398802;28;20046;-42
2021/07/05 19:51:43;;;;;;;4.65;1.90;;;18.80;99.90;;;;;;12398985;28;20050;-41
2021/07/05 19:57:45;;;;;;;4.13;1.90;;;18.70;99.90;;;;;;12396331;28;20058;-41
2021/07/05 20:03:48;;;;;;;6.28;2.15;;;18.60;99.90;;;;;;12397851;28;20046;-40
2021/07/05 20:09:49;;;;;;;3.92;1.77;;;18.60;99.90;;;;;;12401543;28;21368;-40
2021/07/05 20:15:51;;;;;;;3.30;1.80;;;18.50;99.90;;;;;;12403180;28;20046;-40
2021/07/05 20:21:53;;;;;;;2.65;1.50;;;18.40;99.90;;;;;;12400417;28;20046;-40
2021/07/05 20:27:55;;;;;;;2.78;1.30;;;18.30;99.90;;;;;;12391888;28;20441;-40
2021/07/05 20:33:57;;;;;;;1.95;1.08;;;18.30;99.90;;;;;;12396944;28;20101;-40
2021/07/05 20:39:59;;;;;;;2.15;1.30;;;18.30;99.90;;;;;;12396555;28;20510;-40
2021/07/05 20:46:04;;;;;;;3.13;1.40;;;18.30;99.90;;;;;;12391678;28;20057;-40
2021/07/05 20:52:06;;;;;;;2.53;1.27;;;18.30;99.90;;;;;;12394104;28;20055;-40
2021/07/05 20:58:08;;;;;;;1.70;1.10;;;18.20;99.90;;;;;;12396747;28;20113;-40
2021/07/05 21:04:10;;;;;;;5.47;1.50;;;18.10;99.90;;;;;;12393823;28;20472;-40
2021/07/05 21:10:13;;;;;;;4.20;1.40;;;18.10;99.90;;;;;;12394391;28;20157;-40
2021/07/05 21:16:17;;;;;;;2.00;1.33;;;18.00;99.90;;;;;;12392225;28;20054;-40
2021/07/05 21:22:21;;;;;;;5.00;1.70;;;18.10;99.90;;;;;;12388570;28;20123;-41
2021/07/05 21:28:22;;;;;;;4.97;1.60;;;18.10;99.90;;;;;;12392353;28;20045;-41
2021/07/05 21:34:24;;;;;;;6.47;1.70;;;18.10;99.90;;;;;;12391369;28;20077;-40
2021/07/05 21:40:27;;;;;;;2.15;1.60;;;18.10;99.90;;;;;;12396950;28;20660;-40
2021/07/05 21:46:28;;;;;;;2.50;1.70;;;18.10;99.90;;;;;;12394341;28;20134;-41
2021/07/05 21:52:31;;;;;;;3.75;1.50;;;18.10;99.90;;;;;;12395826;28;20104;-40
2021/07/05 21:58:32;;;;;;;3.47;1.70;;;18.10;99.90;;;;;;12391455;28;20540;-41
2021/07/05 22:04:34;;;;;;;4.45;1.55;;;18.20;99.90;;;;;;12396267;28;20466;-40
2021/07/05 22:10:36;;;;;;;3.60;1.60;;;18.20;99.90;;;;;;12390837;28;20049;-40
2021/07/05 22:16:38;;;;;;;3.78;1.70;;;18.30;99.90;;;;;;12388976;28;20046;-40
2021/07/05 22:22:40;;;;;;;2.17;1.58;;;18.20;99.90;;;;;;12388689;28;20571;-40
2021/07/05 22:28:42;;;;;;;3.00;1.75;;;18.20;99.90;;;;;;12390850;28;20081;-41
2021/07/05 22:34:43;;;;;;;2.63;1.73;;;18.20;99.90;;;;;;12392417;28;20054;-41
2021/07/05 22:40:45;;;;;;;3.55;1.52;;;18.10;99.90;;;;;;12400966;28;20100;-40
2021/07/05 22:46:47;;;;;;;4.45;2.05;;;18.10;99.90;;;;;;12402612;28;20042;-40
2021/07/05 22:52:49;;;;;;;5.10;1.77;;;18.10;99.90;;;;;;12399257;28;20070;-41
2021/07/05 22:58:51;;;;;;;2.92;2.03;;;18.10;99.90;;;;;;12405276;28;20103;-40
2021/07/05 23:04:53;;;;;;;4.93;1.70;;;18.10;99.90;;;;;;12396718;28;20556;-41
2021/07/05 23:10:55;;;;;;;3.10;1.70;;;18.00;99.90;;;;;;12402030;28;20042;-40
2021/07/05 23:16:56;;;;;;;3.55;1.70;;;18.00;99.90;;;;;;12393662;28;20570;-41
2021/07/05 23:23:00;;;;;;;4.97;1.90;;;18.00;99.90;;;;;;12399710;28;20050;-40
2021/07/05 23:29:02;;;;;;;4.63;1.70;;;18.00;99.90;;;;;;12393211;28;20104;-40
2021/07/05 23:35:05;;;;;;;2.28;1.67;;;18.00;99.90;;;;;;12398438;28;20444;-40
2021/07/05 23:41:06;;;;;;;3.47;1.60;;;18.00;99.90;;;;;;12402037;28;20045;-40
2021/07/05 23:47:09;;;;;;;3.90;1.77;;;18.00;99.90;;;;;;12400001;28;20050;-40
2021/07/05 23:53:11;;;;;;;3.15;1.65;;;18.00;99.90;;;;;;12394483;28;20422;-40
2021/07/05 23:59:12;;;;;;;4.75;1.60;;;18.00;99.90;;;;;;12395647;28;20103;-40
